createdAt,value
2022-08-21T00:01:23.263Z,34.67
2022-08-21T00:03:53.272Z,24.33
2022-08-21T00:06:23.474Z,22.50
2022-08-21T00:08:54.621Z,24.00
2022-08-21T00:11:25.550Z,22.00
2022-08-21T00:13:56.613Z,20.00
2022-08-21T00:16:27.075Z,24.00
2022-08-21T00:18:57.626Z,18.50
2022-08-21T00:21:27.881Z,23.00
2022-08-21T00:23:58.025Z,24.50
2022-08-21T00:26:28.733Z,29.67
2022-08-21T00:28:59.306Z,28.25
2022-08-21T00:31:31.463Z,23.67
2022-08-21T00:34:02.007Z,25.75
2022-08-21T00:39:02.257Z,32.75
2022-08-21T00:41:37.512Z,26.50
2022-08-21T00:44:14.235Z,35.00
2022-08-21T00:46:45.859Z,26.00
2022-08-21T00:49:16.770Z,26.25
2022-08-21T00:51:58.104Z,27.00
2022-08-21T00:54:32.642Z,22.50
2022-08-21T00:57:07.419Z,27.33
2022-08-21T00:59:41.269Z,25.00
2022-08-21T01:02:12.610Z,23.75
2022-08-21T01:04:43.521Z,26.00
2022-08-21T01:07:14.908Z,26.67
2022-08-21T01:09:46.048Z,25.50
2022-08-21T01:12:17.096Z,27.67
2022-08-21T01:14:48.092Z,27.00
2022-08-21T01:17:20.035Z,29.00
2022-08-21T01:19:50.661Z,25.75
2022-08-21T01:22:21.707Z,39.00
2022-08-21T01:24:52.428Z,23.00
2022-08-21T01:27:23.332Z,26.75
2022-08-21T01:30:24.964Z,25.75
2022-08-21T01:32:56.936Z,22.75
2022-08-21T01:35:27.019Z,25.75
2022-08-21T01:37:57.028Z,25.75
2022-08-21T01:40:27.079Z,27.33
2022-08-21T01:42:57.510Z,28.00
2022-08-21T01:45:27.624Z,29.33
2022-08-21T01:47:57.680Z,33.25
2022-08-21T01:50:27.712Z,29.00
2022-08-21T01:52:57.833Z,38.75
2022-08-21T01:55:28.166Z,33.00
2022-08-21T02:00:28.483Z,29.33
2022-08-21T02:02:58.792Z,17.75
2022-08-21T02:05:29.076Z,34.75
2022-08-21T02:08:00.795Z,32.75
2022-08-21T02:10:34.669Z,35.00
2022-08-21T02:13:05.995Z,34.50
2022-08-21T02:15:36.837Z,35.00
2022-08-21T02:18:09.152Z,30.33
2022-08-21T02:20:44.219Z,31.25
2022-08-21T02:23:15.261Z,32.50
2022-08-21T02:25:45.925Z,37.50
2022-08-21T02:28:18.357Z,47.00
2022-08-21T02:33:21.776Z,46.33
2022-08-21T02:35:54.264Z,39.50
2022-08-21T02:38:28.395Z,40.50
2022-08-21T02:41:00.001Z,41.25
2022-08-21T02:43:31.184Z,39.75
2022-08-21T02:46:02.194Z,37.25
2022-08-21T02:48:34.081Z,39.00
2022-08-21T02:51:08.799Z,35.00
2022-08-21T02:53:40.373Z,34.25
2022-08-21T02:56:14.440Z,35.25
2022-08-21T02:58:51.134Z,37.50
2022-08-21T03:01:22.543Z,39.75
2022-08-21T03:03:53.074Z,42.50
2022-08-21T03:06:26.874Z,36.25
2022-08-21T03:08:57.094Z,31.67
2022-08-21T03:11:28.950Z,31.25
2022-08-21T03:13:59.618Z,35.25
2022-08-21T03:16:43.910Z,34.00
2022-08-21T03:19:14.761Z,41.00
2022-08-21T03:21:44.774Z,40.75
2022-08-21T03:24:14.759Z,43.00
2022-08-21T03:26:48.175Z,42.00
2022-08-21T03:29:18.422Z,43.25
2022-08-21T03:31:48.465Z,41.67
2022-08-21T03:34:20.340Z,42.00
2022-08-21T03:36:51.788Z,42.75
2022-08-21T03:39:22.176Z,47.25
2022-08-21T03:41:52.664Z,42.00
2022-08-21T03:44:22.681Z,47.00
2022-08-21T03:46:52.592Z,45.50
2022-08-21T03:49:22.890Z,42.75
2022-08-21T03:52:04.595Z,43.33
2022-08-21T03:54:36.038Z,47.75
2022-08-21T03:57:07.357Z,42.25
2022-08-21T03:59:38.610Z,42.50
2022-08-21T04:02:10.018Z,42.00
2022-08-21T04:04:40.703Z,42.00
2022-08-21T04:07:10.832Z,49.75
2022-08-21T04:09:41.021Z,46.25
2022-08-21T04:12:11.567Z,40.50
2022-08-21T04:14:41.659Z,42.25
2022-08-21T04:17:11.637Z,45.00
2022-08-21T04:19:41.600Z,44.00
2022-08-21T04:22:11.566Z,43.25
2022-08-21T04:24:41.582Z,44.75
2022-08-21T04:27:11.533Z,42.00
2022-08-21T04:29:41.482Z,42.00
2022-08-21T04:32:11.819Z,41.75
2022-08-21T04:34:41.771Z,40.50
2022-08-21T04:37:11.702Z,41.00
2022-08-21T04:39:41.649Z,45.67
2022-08-21T04:42:11.791Z,45.67
2022-08-21T04:44:41.807Z,45.00
2022-08-21T04:47:11.756Z,45.00
2022-08-21T04:49:41.774Z,43.67
2022-08-21T04:54:42.786Z,41.25
2022-08-21T04:57:13.450Z,44.00
2022-08-21T04:59:51.490Z,45.67
2022-08-21T05:02:25.011Z,44.00
2022-08-21T05:04:57.547Z,46.33
2022-08-21T05:07:41.892Z,43.25
2022-08-21T05:10:16.194Z,45.00
2022-08-21T05:12:47.611Z,43.75
2022-08-21T05:15:19.557Z,47.50
2022-08-21T05:17:52.327Z,45.75
2022-08-21T05:20:24.335Z,46.00
2022-08-21T05:22:58.503Z,45.50
2022-08-21T05:25:30.844Z,44.00
2022-08-21T05:28:01.182Z,47.50
2022-08-21T05:30:32.325Z,48.33
2022-08-21T05:33:08.421Z,46.00
2022-08-21T05:35:40.777Z,41.25
2022-08-21T05:38:16.512Z,42.00
2022-08-21T05:40:57.798Z,42.50
2022-08-21T05:43:28.787Z,47.00
2022-08-21T05:45:58.867Z,44.25
2022-08-21T05:48:28.781Z,47.67
2022-08-21T05:50:59.559Z,43.25
2022-08-21T05:53:32.166Z,45.25
2022-08-21T05:56:05.735Z,46.50
2022-08-21T05:58:37.395Z,44.25
2022-08-21T06:01:08.949Z,47.25
2022-08-21T06:03:43.370Z,47.00
2022-08-21T06:06:13.595Z,47.00
2022-08-21T06:08:44.740Z,43.00
2022-08-21T06:11:15.804Z,47.00
2022-08-21T06:13:49.772Z,45.00
2022-08-21T06:16:20.674Z,47.00
2022-08-21T06:18:51.749Z,45.00
2022-08-21T06:21:22.733Z,41.00
2022-08-21T06:23:53.196Z,45.00
2022-08-21T06:26:24.629Z,42.75
2022-08-21T06:28:56.037Z,42.75
2022-08-21T06:31:29.840Z,44.50
2022-08-21T06:34:00.248Z,50.00
2022-08-21T06:36:30.386Z,42.33
2022-08-21T06:39:00.328Z,44.00
2022-08-21T06:41:32.089Z,45.75
2022-08-21T06:44:20.652Z,42.25
2022-08-21T06:47:00.779Z,45.67
2022-08-21T06:49:39.962Z,48.25
2022-08-21T06:54:54.498Z,46.25
2022-08-21T06:57:25.076Z,43.75
2022-08-21T06:59:55.266Z,44.75
2022-08-21T07:02:25.237Z,44.00
2022-08-21T07:04:55.279Z,45.00
2022-08-21T07:09:54.613Z,44.67
2022-08-21T07:12:24.574Z,46.25
2022-08-21T07:14:54.500Z,45.50
2022-08-21T07:17:24.638Z,45.00
2022-08-21T07:19:54.729Z,42.00
2022-08-21T07:22:25.806Z,42.00
2022-08-21T07:24:56.714Z,42.50
2022-08-21T07:27:27.369Z,40.75
2022-08-21T07:32:27.704Z,40.67
2022-08-21T07:34:57.837Z,45.25
2022-08-21T07:37:28.021Z,38.75
2022-08-21T07:39:58.904Z,39.00
2022-08-21T07:42:29.256Z,43.33
2022-08-21T07:45:01.961Z,41.50
2022-08-21T07:47:42.800Z,38.50
2022-08-21T07:50:16.036Z,42.50
2022-08-21T07:52:47.346Z,42.33
2022-08-21T07:55:22.196Z,43.00
2022-08-21T08:00:26.865Z,39.25
2022-08-21T08:02:58.502Z,47.75
2022-08-21T08:05:32.431Z,41.75
2022-08-21T08:08:02.859Z,40.25
2022-08-21T08:10:33.673Z,39.00
2022-08-21T08:13:04.682Z,43.75
2022-08-21T08:15:37.600Z,43.75
2022-08-21T08:18:08.719Z,50.00
2022-08-21T08:20:39.052Z,42.00
2022-08-21T08:23:09.845Z,40.75
2022-08-21T08:25:40.229Z,45.50
2022-08-21T08:28:16.975Z,41.33
2022-08-21T08:30:49.069Z,44.75
2022-08-21T08:33:22.839Z,43.25
2022-08-21T08:35:54.465Z,45.25
2022-08-21T08:38:27.185Z,41.67
2022-08-21T08:41:13.132Z,43.00
2022-08-21T08:43:47.977Z,39.67
2022-08-21T08:46:21.894Z,40.50
2022-08-21T08:49:02.209Z,44.00
2022-08-21T08:51:39.785Z,43.50
2022-08-21T08:54:16.767Z,40.25
2022-08-21T08:56:48.297Z,37.75
2022-08-21T08:59:23.476Z,41.33
2022-08-21T09:01:54.240Z,41.75
2022-08-21T09:04:31.173Z,41.75
2022-08-21T09:07:28.530Z,41.75
2022-08-21T09:10:17.667Z,41.50
2022-08-21T09:13:22.610Z,37.75
2022-08-21T09:16:25.608Z,48.00
2022-08-21T09:19:08.014Z,46.00
2022-08-21T09:21:43.985Z,45.00
2022-08-21T09:24:50.040Z,46.75
2022-08-21T09:27:24.456Z,39.25
2022-08-21T09:29:59.890Z,42.00
2022-08-21T09:32:37.847Z,41.00
2022-08-21T09:35:21.995Z,34.75
2022-08-21T09:37:58.107Z,34.50
2022-08-21T09:40:48.094Z,42.75
2022-08-21T09:43:22.203Z,46.75
2022-08-21T09:46:22.221Z,42.00
2022-08-21T09:49:57.934Z,34.75
2022-08-21T09:52:33.914Z,40.25
2022-08-21T09:55:26.537Z,40.67
2022-08-21T09:57:57.167Z,40.50
2022-08-21T10:00:33.198Z,42.33
2022-08-21T10:05:58.491Z,36.25
2022-08-21T10:08:31.863Z,34.25
2022-08-21T10:11:26.979Z,35.75
2022-08-21T10:14:05.056Z,38.25
2022-08-21T10:16:37.899Z,36.75
2022-08-21T10:22:12.076Z,44.00
2022-08-21T10:25:14.164Z,49.75
2022-08-21T10:28:15.880Z,37.50
2022-08-21T10:31:19.506Z,45.50
2022-08-21T10:34:12.453Z,48.67
2022-08-21T10:36:46.823Z,45.50
2022-08-21T10:39:35.873Z,45.00
2022-08-21T10:44:53.789Z,45.50
2022-08-21T10:47:35.906Z,34.50
2022-08-21T10:50:15.025Z,40.00
2022-08-21T10:53:03.193Z,43.25
2022-08-21T10:55:46.722Z,47.00
2022-08-21T10:58:34.198Z,49.00
2022-08-21T11:04:18.853Z,42.00
2022-08-21T11:07:01.821Z,42.50
2022-08-21T11:09:34.909Z,45.00
2022-08-21T11:12:16.132Z,45.33
2022-08-21T11:14:58.281Z,44.75
2022-08-21T11:17:39.748Z,44.75
2022-08-21T11:20:24.541Z,46.50
2022-08-21T11:23:25.647Z,45.00
2022-08-21T11:26:04.831Z,40.75
2022-08-21T11:28:44.020Z,44.50
2022-08-21T11:32:05.455Z,45.00
2022-08-21T11:35:05.621Z,37.00
2022-08-21T11:38:05.780Z,37.33
2022-08-21T11:40:41.914Z,40.50
2022-08-21T11:43:33.521Z,41.50
2022-08-21T11:46:20.802Z,41.75
2022-08-21T11:49:03.254Z,42.33
2022-08-21T11:51:50.492Z,45.33
2022-08-21T11:54:31.801Z,42.75
2022-08-21T11:57:12.839Z,41.67
2022-08-21T11:59:50.279Z,41.67
2022-08-21T12:02:26.069Z,45.67
2022-08-21T12:05:08.169Z,41.75
2022-08-21T12:07:42.934Z,38.33
2022-08-21T12:10:25.256Z,39.00
2022-08-21T12:12:55.565Z,46.00
2022-08-21T12:15:25.463Z,47.75
2022-08-21T12:18:05.638Z,44.25
2022-08-21T12:21:15.269Z,46.25
2022-08-21T12:24:24.274Z,41.33
2022-08-21T12:27:30.777Z,44.00
2022-08-21T12:30:09.302Z,42.25
2022-08-21T12:32:45.390Z,46.50
2022-08-21T12:35:40.920Z,44.00
2022-08-21T12:38:35.523Z,43.00
2022-08-21T12:41:21.062Z,45.67
2022-08-21T12:44:07.401Z,47.50
2022-08-21T12:46:47.639Z,45.50
2022-08-21T12:49:29.414Z,42.75
2022-08-21T12:52:04.989Z,46.25
2022-08-21T12:54:43.453Z,45.00
2022-08-21T12:57:24.313Z,48.50
2022-08-21T13:00:01.415Z,42.50
2022-08-21T13:02:39.735Z,43.50
2022-08-21T13:05:15.452Z,45.00
2022-08-21T13:07:51.571Z,44.50
2022-08-21T13:10:32.742Z,44.00
2022-08-21T13:13:25.822Z,45.25
2022-08-21T13:16:06.057Z,48.00
2022-08-21T13:18:54.405Z,48.25
2022-08-21T13:21:35.196Z,46.00
2022-08-21T13:24:43.375Z,45.50
2022-08-21T13:30:12.622Z,47.25
2022-08-21T13:32:49.196Z,44.33
2022-08-21T13:35:25.616Z,50.00
2022-08-21T13:37:58.745Z,45.00
2022-08-21T13:40:42.559Z,48.00
2022-08-21T13:43:26.596Z,48.00
2022-08-21T13:45:58.814Z,47.00
2022-08-21T13:48:37.151Z,47.50
2022-08-21T13:51:08.921Z,44.75
2022-08-21T13:56:10.064Z,44.00
2022-08-21T13:58:51.140Z,46.75
2022-08-21T14:01:38.928Z,43.25
2022-08-21T14:04:51.064Z,45.00
2022-08-21T14:07:47.041Z,45.33
2022-08-21T14:10:25.961Z,47.00
2022-08-21T14:13:04.752Z,47.25
2022-08-21T14:15:38.531Z,47.75
2022-08-21T14:18:28.825Z,45.25
2022-08-21T14:21:12.095Z,46.25
2022-08-21T14:23:47.268Z,44.50
2022-08-21T14:26:23.032Z,45.75
2022-08-21T14:28:54.547Z,45.33
2022-08-21T14:31:35.778Z,45.00
2022-08-21T14:34:19.584Z,43.00
2022-08-21T14:36:52.070Z,48.00
2022-08-21T14:39:23.495Z,45.25
2022-08-21T14:41:59.884Z,45.75
2022-08-21T14:47:04.491Z,45.67
2022-08-21T14:49:39.118Z,45.75
2022-08-21T14:52:09.677Z,48.00
2022-08-21T14:54:41.123Z,45.50
2022-08-21T14:57:14.717Z,45.75
2022-08-21T14:59:45.965Z,50.00
2022-08-21T15:02:16.387Z,48.00
2022-08-21T15:04:47.230Z,48.00
2022-08-21T15:07:17.838Z,50.00
2022-08-21T15:09:51.260Z,49.67
2022-08-21T15:12:22.492Z,48.00
2022-08-21T15:14:53.512Z,45.25
2022-08-21T15:17:25.187Z,44.75
2022-08-21T15:19:55.946Z,47.00
2022-08-21T15:22:29.695Z,43.67
2022-08-21T15:25:00.409Z,44.25
2022-08-21T15:27:33.875Z,48.75
2022-08-21T15:30:08.210Z,47.00
2022-08-21T15:32:40.359Z,48.00
2022-08-21T15:35:12.008Z,48.25
2022-08-21T15:37:44.297Z,47.00
2022-08-21T15:40:16.653Z,48.00
2022-08-21T15:42:48.996Z,48.00
2022-08-21T15:45:19.745Z,49.75
2022-08-21T15:47:53.323Z,48.25
2022-08-21T15:50:24.535Z,49.00
2022-08-21T15:52:56.450Z,48.33
2022-08-21T15:55:28.316Z,49.75
2022-08-21T15:58:05.708Z,50.00
2022-08-21T16:00:40.716Z,50.00
2022-08-21T16:03:16.503Z,48.75
2022-08-21T16:05:51.824Z,48.50
2022-08-21T16:08:23.952Z,46.67
2022-08-21T16:10:57.837Z,47.75
2022-08-21T16:13:33.397Z,47.00
2022-08-21T16:16:04.231Z,49.00
2022-08-21T16:18:35.543Z,47.25
2022-08-21T16:21:06.585Z,50.00
2022-08-21T16:23:39.913Z,50.00
2022-08-21T16:26:14.165Z,48.00
2022-08-21T16:31:23.568Z,47.75
2022-08-21T16:33:58.099Z,44.75
2022-08-21T16:36:29.453Z,46.00
2022-08-21T16:39:02.864Z,45.25
2022-08-21T16:41:38.125Z,42.50
2022-08-21T16:44:09.788Z,44.00
2022-08-21T16:46:44.410Z,45.75
2022-08-21T16:49:15.394Z,41.50
2022-08-21T16:51:49.211Z,44.75
2022-08-21T16:54:20.422Z,42.50
2022-08-21T16:56:54.189Z,40.75
2022-08-21T16:59:26.048Z,42.00
2022-08-21T17:01:57.431Z,44.33
2022-08-21T17:04:30.952Z,40.25
2022-08-21T17:07:01.526Z,45.00
2022-08-21T17:09:31.898Z,42.00
2022-08-21T17:12:02.310Z,42.75
2022-08-21T17:14:32.684Z,39.75
2022-08-21T17:17:07.257Z,45.00
2022-08-21T17:19:38.553Z,43.50
2022-08-21T17:22:10.394Z,43.00
2022-08-21T17:24:41.197Z,36.67
2022-08-21T17:27:11.879Z,40.50
2022-08-21T17:29:43.382Z,40.00
2022-08-21T17:32:16.438Z,40.00
2022-08-21T17:34:48.824Z,42.75
2022-08-21T17:37:19.257Z,40.00
2022-08-21T17:39:50.185Z,40.50
2022-08-21T17:42:20.806Z,38.00
2022-08-21T17:44:51.082Z,42.33
2022-08-21T17:47:21.774Z,40.25
2022-08-21T17:49:52.024Z,42.25
2022-08-21T17:52:22.520Z,42.50
2022-08-21T17:54:52.652Z,44.00
2022-08-21T17:57:29.300Z,44.50
2022-08-21T17:59:59.970Z,43.00
2022-08-21T18:02:33.196Z,42.75
2022-08-21T18:05:03.632Z,41.50
2022-08-21T18:07:33.728Z,47.50
2022-08-21T18:10:07.547Z,46.25
2022-08-21T18:12:38.028Z,44.00
2022-08-21T18:15:09.232Z,44.50
2022-08-21T18:17:39.462Z,46.50
2022-08-21T18:20:10.548Z,43.50
2022-08-21T18:22:40.790Z,45.00
2022-08-21T18:25:11.095Z,38.25
2022-08-21T18:27:43.973Z,41.75
2022-08-21T18:30:17.714Z,43.50
2022-08-21T18:32:48.562Z,45.50
2022-08-21T18:35:19.453Z,39.75
2022-08-21T18:37:49.738Z,42.00
2022-08-21T18:40:19.920Z,40.50
2022-08-21T18:42:55.879Z,43.33
2022-08-21T18:45:26.971Z,38.00
2022-08-21T18:47:59.359Z,40.75
2022-08-21T18:50:31.433Z,42.00
2022-08-21T18:53:01.569Z,45.25
2022-08-21T18:55:39.972Z,39.67
2022-08-21T19:00:48.452Z,40.50
2022-08-21T19:03:24.647Z,43.50
2022-08-21T19:05:56.243Z,41.67
2022-08-21T19:08:30.373Z,41.33
2022-08-21T19:11:03.869Z,43.00
2022-08-21T19:16:09.740Z,40.50
2022-08-21T19:18:43.306Z,42.00
2022-08-21T19:21:14.065Z,45.00
2022-08-21T19:23:44.791Z,41.00
2022-08-21T19:26:14.853Z,38.75
2022-08-21T19:31:23.752Z,41.25
2022-08-21T19:34:07.760Z,37.75
2022-08-21T19:36:38.778Z,36.75
2022-08-21T19:39:14.301Z,35.67
2022-08-21T19:41:51.099Z,37.25
2022-08-21T19:44:26.030Z,39.50
2022-08-21T19:46:59.149Z,40.50
2022-08-21T19:49:33.458Z,37.33
2022-08-21T19:52:12.957Z,37.50
2022-08-21T19:54:44.486Z,35.00
2022-08-21T19:57:15.372Z,33.25
2022-08-21T19:59:46.975Z,33.75
2022-08-21T20:02:21.271Z,33.33
2022-08-21T20:04:53.790Z,36.75
2022-08-21T20:10:15.781Z,35.75
2022-08-21T20:12:49.592Z,35.00
2022-08-21T20:15:23.284Z,35.33
2022-08-21T20:17:54.735Z,40.00
2022-08-21T20:20:24.953Z,35.00
2022-08-21T20:23:01.313Z,33.25
2022-08-21T20:25:42.063Z,36.50
2022-08-21T20:30:46.826Z,35.67
2022-08-21T20:33:18.973Z,37.75
2022-08-21T20:35:51.265Z,35.25
2022-08-21T20:40:54.786Z,38.25
2022-08-21T20:43:25.546Z,39.67
2022-08-21T20:45:58.529Z,39.75
2022-08-21T20:48:49.513Z,30.25
2022-08-21T20:51:32.017Z,36.67
2022-08-21T20:54:28.550Z,33.25
2022-08-21T20:57:22.928Z,36.33
2022-08-21T20:59:58.500Z,36.00
2022-08-21T21:05:24.968Z,39.50
2022-08-21T21:08:07.247Z,38.00
2022-08-21T21:11:19.621Z,38.33
2022-08-21T21:14:02.015Z,42.33
2022-08-21T21:16:45.883Z,40.25
2022-08-21T21:19:37.339Z,36.33
2022-08-21T21:22:15.903Z,40.00
2022-08-21T21:25:03.091Z,40.50
2022-08-21T21:27:55.516Z,37.00
2022-08-21T21:30:25.996Z,42.75
2022-08-21T21:32:56.292Z,37.67
2022-08-21T21:35:36.483Z,37.00
2022-08-21T21:38:14.601Z,39.33
2022-08-21T21:40:47.786Z,37.00
2022-08-21T21:43:49.559Z,34.00
2022-08-21T21:49:29.012Z,38.67
2022-08-21T21:52:21.661Z,38.00
2022-08-21T21:55:13.406Z,42.50
2022-08-21T21:58:36.857Z,43.25
2022-08-21T22:01:17.865Z,38.00
2022-08-21T22:03:52.267Z,37.75
2022-08-21T22:06:39.111Z,41.00
2022-08-21T22:09:20.263Z,35.75
2022-08-21T22:11:59.864Z,35.00
2022-08-21T22:14:41.730Z,32.67
2022-08-21T22:17:35.090Z,31.67
2022-08-21T22:20:17.938Z,30.75
2022-08-21T22:22:49.351Z,34.67
2022-08-21T22:25:26.260Z,32.00
2022-08-21T22:28:13.200Z,35.33
2022-08-21T22:30:53.764Z,31.75
2022-08-21T22:33:33.854Z,39.00
2022-08-21T22:36:20.986Z,34.33
2022-08-21T22:38:50.977Z,25.50
2022-08-21T22:44:24.894Z,29.00
2022-08-21T22:47:01.799Z,29.50
2022-08-21T22:49:50.986Z,30.25
2022-08-21T22:52:25.739Z,23.50
2022-08-21T22:55:01.779Z,23.00
2022-08-21T22:57:37.127Z,27.00
2022-08-21T23:00:14.818Z,17.00
2022-08-21T23:02:58.418Z,26.25
2022-08-21T23:05:31.364Z,23.00
2022-08-21T23:08:24.340Z,22.25
2022-08-21T23:11:01.415Z,23.50
2022-08-21T23:13:40.384Z,24.33
2022-08-21T23:16:34.380Z,24.25
2022-08-21T23:19:28.674Z,21.25
2022-08-21T23:22:15.778Z,18.50
2022-08-21T23:25:19.274Z,20.67
2022-08-21T23:28:03.854Z,25.00
2022-08-21T23:30:56.747Z,24.00
2022-08-21T23:36:53.312Z,22.75
2022-08-21T23:39:32.443Z,27.50
2022-08-21T23:42:36.164Z,26.75
2022-08-21T23:45:19.465Z,32.25
2022-08-21T23:48:29.677Z,32.50
2022-08-21T23:51:25.046Z,29.00
2022-08-21T23:53:58.123Z,27.00
2022-08-21T23:56:34.452Z,34.50
2022-08-21T23:59:28.200Z,35.33
